sensor_id;sensor_type;location;lat;lon;timestamp;P1;durP1;ratioP1;P2;durP2;ratioP2
22363;SDS011;11349;53.412;-1.328;2023-01-10T00:01:26;24.15;;;5.22;;
22363;SDS011;11349;53.412;-1.328;2023-01-10T00:03:52;20.42;;;3.90;;
22363;SDS011;11349;53.412;-1.328;2023-01-10T00:06:17;22.60;;;3.83;;
22363;SDS011;11349;53.412;-1.328;2023-01-10T00:08:43;15.50;;;3.50;;
22363;SDS011;11349;53.412;-1.328;2023-01-10T00:11:09;15.20;;;3.78;;
22363;SDS011;11349;53.412;-1.328;2023-01-10T00:13:53;20.95;;;4.53;;
22363;SDS011;11349;53.412;-1.328;2023-01-10T00:16:20;20.52;;;4.90;;
22363;SDS011;11349;53.412;-1.328;2023-01-10T00:18:46;12.77;;;3.25;;
22363;SDS011;11349;53.412;-1.328;2023-01-10T00:21:12;20.67;;;4.60;;
22363;SDS011;11349;53.412;-1.328;2023-01-10T00:23:41;25.52;;;4.28;;
22363;SDS011;11349;53.412;-1.328;2023-01-10T00:26:08;15.90;;;3.63;;
22363;SDS011;11349;53.412;-1.328;2023-01-10T00:28:34;19.25;;;3.85;;
22363;SDS011;11349;53.412;-1.328;2023-01-10T00:31:00;20.02;;;5.15;;
22363;SDS011;11349;53.412;-1.328;2023-01-10T00:33:30;23.70;;;4.43;;
22363;SDS011;11349;53.412;-1.328;2023-01-10T00:36:00;21.60;;;5.03;;
22363;SDS011;11349;53.412;-1.328;2023-01-10T00:38:27;22.33;;;4.88;;
22363;SDS011;11349;53.412;-1.328;2023-01-10T00:40:54;20.35;;;4.57;;
22363;SDS011;11349;53.412;-1.328;2023-01-10T00:43:20;21.00;;;4.25;;
22363;SDS011;11349;53.412;-1.328;2023-01-10T00:46:04;26.58;;;6.45;;
22363;SDS011;11349;53.412;-1.328;2023-01-10T00:48:30;21.00;;;3.70;;
22363;SDS011;11349;53.412;-1.328;2023-01-10T00:50:56;17.33;;;3.95;;
22363;SDS011;11349;53.412;-1.328;2023-01-10T00:53:21;23.00;;;5.07;;
22363;SDS011;11349;53.412;-1.328;2023-01-10T00:55:47;17.85;;;4.30;;
22363;SDS011;11349;53.412;-1.328;2023-01-10T00:58:13;23.02;;;4.22;;
22363;SDS011;11349;53.412;-1.328;2023-01-10T01:00:41;23.33;;;4.57;;
22363;SDS011;11349;53.412;-1.328;2023-01-10T01:03:11;20.90;;;4.28;;
22363;SDS011;11349;53.412;-1.328;2023-01-10T01:05:41;26.20;;;5.03;;
22363;SDS011;11349;53.412;-1.328;2023-01-10T01:08:08;23.23;;;3.85;;
22363;SDS011;11349;53.412;-1.328;2023-01-10T01:10:35;26.83;;;6.38;;
22363;SDS011;11349;53.412;-1.328;2023-01-10T01:13:05;25.85;;;4.93;;
22363;SDS011;11349;53.412;-1.328;2023-01-10T01:15:33;24.60;;;5.40;;
22363;SDS011;11349;53.412;-1.328;2023-01-10T01:17:59;20.27;;;4.93;;
22363;SDS011;11349;53.412;-1.328;2023-01-10T01:20:26;24.83;;;5.03;;
22363;SDS011;11349;53.412;-1.328;2023-01-10T01:22:51;23.75;;;5.72;;
22363;SDS011;11349;53.412;-1.328;2023-01-10T01:25:17;20.70;;;4.53;;
22363;SDS011;11349;53.412;-1.328;2023-01-10T01:27:43;19.88;;;3.97;;
22363;SDS011;11349;53.412;-1.328;2023-01-10T01:30:09;22.75;;;5.60;;
22363;SDS011;11349;53.412;-1.328;2023-01-10T01:32:35;13.73;;;4.40;;
22363;SDS011;11349;53.412;-1.328;2023-01-10T01:35:02;21.50;;;4.22;;
22363;SDS011;11349;53.412;-1.328;2023-01-10T01:37:27;22.63;;;4.65;;
22363;SDS011;11349;53.412;-1.328;2023-01-10T01:39:53;21.35;;;3.95;;
22363;SDS011;11349;53.412;-1.328;2023-01-10T01:42:31;21.92;;;4.63;;
22363;SDS011;11349;53.412;-1.328;2023-01-10T01:47:47;18.55;;;4.03;;
22363;SDS011;11349;53.412;-1.328;2023-01-10T01:52:51;18.08;;;4.13;;
22363;SDS011;11349;53.412;-1.328;2023-01-10T01:55:20;20.92;;;4.40;;
22363;SDS011;11349;53.412;-1.328;2023-01-10T01:57:48;20.02;;;4.03;;
22363;SDS011;11349;53.412;-1.328;2023-01-10T02:00:17;18.95;;;5.05;;
22363;SDS011;11349;53.412;-1.328;2023-01-10T02:02:44;23.30;;;4.30;;
22363;SDS011;11349;53.412;-1.328;2023-01-10T02:05:15;20.42;;;4.28;;
22363;SDS011;11349;53.412;-1.328;2023-01-10T02:07:44;22.15;;;4.60;;
22363;SDS011;11349;53.412;-1.328;2023-01-10T02:10:16;19.25;;;3.33;;
22363;SDS011;11349;53.412;-1.328;2023-01-10T02:12:46;19.20;;;3.60;;
22363;SDS011;11349;53.412;-1.328;2023-01-10T02:15:16;18.30;;;3.58;;
22363;SDS011;11349;53.412;-1.328;2023-01-10T02:17:42;14.80;;;4.13;;
22363;SDS011;11349;53.412;-1.328;2023-01-10T02:20:11;13.95;;;4.03;;
22363;SDS011;11349;53.412;-1.328;2023-01-10T02:33:19;16.60;;;3.67;;
22363;SDS011;11349;53.412;-1.328;2023-01-10T02:41:30;26.98;;;3.83;;
22363;SDS011;11349;53.412;-1.328;2023-01-10T02:47:16;16.73;;;4.25;;
22363;SDS011;11349;53.412;-1.328;2023-01-10T02:52:08;12.05;;;2.65;;
22363;SDS011;11349;53.412;-1.328;2023-01-10T02:54:36;16.83;;;3.70;;
22363;SDS011;11349;53.412;-1.328;2023-01-10T02:57:07;14.88;;;3.60;;
22363;SDS011;11349;53.412;-1.328;2023-01-10T03:00:02;19.23;;;4.25;;
22363;SDS011;11349;53.412;-1.328;2023-01-10T03:03:01;14.75;;;3.22;;
22363;SDS011;11349;53.412;-1.328;2023-01-10T03:05:40;22.95;;;3.75;;
22363;SDS011;11349;53.412;-1.328;2023-01-10T03:11:15;18.63;;;3.45;;
22363;SDS011;11349;53.412;-1.328;2023-01-10T03:14:01;14.52;;;3.15;;
22363;SDS011;11349;53.412;-1.328;2023-01-10T03:16:28;13.65;;;3.05;;
22363;SDS011;11349;53.412;-1.328;2023-01-10T03:19:11;19.15;;;2.90;;
22363;SDS011;11349;53.412;-1.328;2023-01-10T03:21:39;16.02;;;4.03;;
22363;SDS011;11349;53.412;-1.328;2023-01-10T03:24:12;12.27;;;2.97;;
22363;SDS011;11349;53.412;-1.328;2023-01-10T03:29:08;20.63;;;3.67;;
22363;SDS011;11349;53.412;-1.328;2023-01-10T03:31:38;12.98;;;4.47;;
22363;SDS011;11349;53.412;-1.328;2023-01-10T03:34:09;17.73;;;3.75;;
22363;SDS011;11349;53.412;-1.328;2023-01-10T03:36:58;13.63;;;3.10;;
22363;SDS011;11349;53.412;-1.328;2023-01-10T03:39:43;16.00;;;2.60;;
22363;SDS011;11349;53.412;-1.328;2023-01-10T03:44:42;12.63;;;2.58;;
22363;SDS011;11349;53.412;-1.328;2023-01-10T03:49:59;15.10;;;2.78;;
22363;SDS011;11349;53.412;-1.328;2023-01-10T03:52:33;14.40;;;3.40;;
22363;SDS011;11349;53.412;-1.328;2023-01-10T03:55:00;15.27;;;4.00;;
22363;SDS011;11349;53.412;-1.328;2023-01-10T03:57:27;18.70;;;4.38;;
22363;SDS011;11349;53.412;-1.328;2023-01-10T03:59:54;16.10;;;2.90;;
22363;SDS011;11349;53.412;-1.328;2023-01-10T04:02:23;19.25;;;3.60;;
22363;SDS011;11349;53.412;-1.328;2023-01-10T04:04:51;17.25;;;3.63;;
22363;SDS011;11349;53.412;-1.328;2023-01-10T04:07:16;11.75;;;3.33;;
22363;SDS011;11349;53.412;-1.328;2023-01-10T04:09:42;16.65;;;3.40;;
22363;SDS011;11349;53.412;-1.328;2023-01-10T04:12:08;13.25;;;3.10;;
22363;SDS011;11349;53.412;-1.328;2023-01-10T04:14:33;15.45;;;3.50;;
22363;SDS011;11349;53.412;-1.328;2023-01-10T04:16:59;14.15;;;2.88;;
22363;SDS011;11349;53.412;-1.328;2023-01-10T04:19:25;13.15;;;3.78;;
22363;SDS011;11349;53.412;-1.328;2023-01-10T04:21:51;19.33;;;3.67;;
22363;SDS011;11349;53.412;-1.328;2023-01-10T04:24:16;21.75;;;4.20;;
22363;SDS011;11349;53.412;-1.328;2023-01-10T04:26:42;20.58;;;4.75;;
22363;SDS011;11349;53.412;-1.328;2023-01-10T04:29:09;14.70;;;3.60;;
22363;SDS011;11349;53.412;-1.328;2023-01-10T04:31:35;19.33;;;5.10;;
22363;SDS011;11349;53.412;-1.328;2023-01-10T04:34:00;17.00;;;3.83;;
22363;SDS011;11349;53.412;-1.328;2023-01-10T04:36:26;16.88;;;3.97;;
22363;SDS011;11349;53.412;-1.328;2023-01-10T04:38:52;16.80;;;3.45;;
22363;SDS011;11349;53.412;-1.328;2023-01-10T04:41:18;12.05;;;3.60;;
22363;SDS011;11349;53.412;-1.328;2023-01-10T04:43:43;13.77;;;2.97;;
22363;SDS011;11349;53.412;-1.328;2023-01-10T04:46:09;19.60;;;3.88;;
22363;SDS011;11349;53.412;-1.328;2023-01-10T04:48:35;17.13;;;3.28;;
22363;SDS011;11349;53.412;-1.328;2023-01-10T04:51:01;15.77;;;3.78;;
22363;SDS011;11349;53.412;-1.328;2023-01-10T04:53:27;19.50;;;3.92;;
22363;SDS011;11349;53.412;-1.328;2023-01-10T04:55:53;22.60;;;4.40;;
22363;SDS011;11349;53.412;-1.328;2023-01-10T04:58:19;22.23;;;4.65;;
22363;SDS011;11349;53.412;-1.328;2023-01-10T05:00:47;22.08;;;4.40;;
22363;SDS011;11349;53.412;-1.328;2023-01-10T05:03:13;16.40;;;3.22;;
22363;SDS011;11349;53.412;-1.328;2023-01-10T05:05:41;19.90;;;4.45;;
22363;SDS011;11349;53.412;-1.328;2023-01-10T05:08:07;17.05;;;4.30;;
22363;SDS011;11349;53.412;-1.328;2023-01-10T05:10:33;18.55;;;4.15;;
22363;SDS011;11349;53.412;-1.328;2023-01-10T05:12:58;18.40;;;4.40;;
22363;SDS011;11349;53.412;-1.328;2023-01-10T05:15:24;17.45;;;3.30;;
22363;SDS011;11349;53.412;-1.328;2023-01-10T05:17:55;16.25;;;3.47;;
22363;SDS011;11349;53.412;-1.328;2023-01-10T05:20:22;13.90;;;3.22;;
22363;SDS011;11349;53.412;-1.328;2023-01-10T05:22:47;12.10;;;3.17;;
22363;SDS011;11349;53.412;-1.328;2023-01-10T05:25:13;19.88;;;3.50;;
22363;SDS011;11349;53.412;-1.328;2023-01-10T05:27:40;9.43;;;2.92;;
22363;SDS011;11349;53.412;-1.328;2023-01-10T05:30:08;15.57;;;3.45;;
22363;SDS011;11349;53.412;-1.328;2023-01-10T05:32:37;15.93;;;4.22;;
22363;SDS011;11349;53.412;-1.328;2023-01-10T05:35:03;18.27;;;4.20;;
22363;SDS011;11349;53.412;-1.328;2023-01-10T05:37:29;16.90;;;4.57;;
22363;SDS011;11349;53.412;-1.328;2023-01-10T05:39:55;19.13;;;4.30;;
22363;SDS011;11349;53.412;-1.328;2023-01-10T05:42:21;18.15;;;4.00;;
22363;SDS011;11349;53.412;-1.328;2023-01-10T05:44:46;20.40;;;4.47;;
22363;SDS011;11349;53.412;-1.328;2023-01-10T05:47:12;19.73;;;3.53;;
22363;SDS011;11349;53.412;-1.328;2023-01-10T05:49:38;20.58;;;5.50;;
22363;SDS011;11349;53.412;-1.328;2023-01-10T05:52:03;21.20;;;3.35;;
22363;SDS011;11349;53.412;-1.328;2023-01-10T05:54:29;20.35;;;3.85;;
22363;SDS011;11349;53.412;-1.328;2023-01-10T05:56:55;16.13;;;3.83;;
22363;SDS011;11349;53.412;-1.328;2023-01-10T05:59:21;16.63;;;3.95;;
22363;SDS011;11349;53.412;-1.328;2023-01-10T06:01:47;15.90;;;3.38;;
22363;SDS011;11349;53.412;-1.328;2023-01-10T06:04:13;20.80;;;4.57;;
22363;SDS011;11349;53.412;-1.328;2023-01-10T06:06:39;18.98;;;4.00;;
22363;SDS011;11349;53.412;-1.328;2023-01-10T06:09:05;13.40;;;4.70;;
22363;SDS011;11349;53.412;-1.328;2023-01-10T06:11:30;19.48;;;3.97;;
22363;SDS011;11349;53.412;-1.328;2023-01-10T06:14:00;14.85;;;3.80;;
22363;SDS011;11349;53.412;-1.328;2023-01-10T06:16:26;20.20;;;5.00;;
22363;SDS011;11349;53.412;-1.328;2023-01-10T06:18:52;15.63;;;3.65;;
22363;SDS011;11349;53.412;-1.328;2023-01-10T06:21:18;14.18;;;3.28;;
22363;SDS011;11349;53.412;-1.328;2023-01-10T06:23:44;19.95;;;4.20;;
22363;SDS011;11349;53.412;-1.328;2023-01-10T06:26:09;16.55;;;3.35;;
22363;SDS011;11349;53.412;-1.328;2023-01-10T06:28:35;15.60;;;4.22;;
22363;SDS011;11349;53.412;-1.328;2023-01-10T06:31:01;15.07;;;3.03;;
22363;SDS011;11349;53.412;-1.328;2023-01-10T06:33:27;16.02;;;3.38;;
22363;SDS011;11349;53.412;-1.328;2023-01-10T06:35:53;18.75;;;3.55;;
22363;SDS011;11349;53.412;-1.328;2023-01-10T06:38:18;18.55;;;3.13;;
22363;SDS011;11349;53.412;-1.328;2023-01-10T06:40:44;13.55;;;3.70;;
22363;SDS011;11349;53.412;-1.328;2023-01-10T06:43:10;13.93;;;3.08;;
22363;SDS011;11349;53.412;-1.328;2023-01-10T06:45:36;16.38;;;3.88;;
22363;SDS011;11349;53.412;-1.328;2023-01-10T06:48:01;14.45;;;3.03;;
22363;SDS011;11349;53.412;-1.328;2023-01-10T06:50:28;17.92;;;3.53;;
22363;SDS011;11349;53.412;-1.328;2023-01-10T06:52:58;17.30;;;4.07;;
22363;SDS011;11349;53.412;-1.328;2023-01-10T06:55:27;13.10;;;3.00;;
22363;SDS011;11349;53.412;-1.328;2023-01-10T06:57:55;15.38;;;2.70;;
22363;SDS011;11349;53.412;-1.328;2023-01-10T07:00:21;17.02;;;3.45;;
22363;SDS011;11349;53.412;-1.328;2023-01-10T07:02:48;16.05;;;3.20;;
22363;SDS011;11349;53.412;-1.328;2023-01-10T07:05:13;16.33;;;3.97;;
22363;SDS011;11349;53.412;-1.328;2023-01-10T07:07:39;12.40;;;3.38;;
22363;SDS011;11349;53.412;-1.328;2023-01-10T07:10:05;14.88;;;3.47;;
22363;SDS011;11349;53.412;-1.328;2023-01-10T07:12:31;13.05;;;2.88;;
22363;SDS011;11349;53.412;-1.328;2023-01-10T07:14:56;19.35;;;3.78;;
22363;SDS011;11349;53.412;-1.328;2023-01-10T07:17:22;11.52;;;2.75;;
22363;SDS011;11349;53.412;-1.328;2023-01-10T07:19:48;16.23;;;3.40;;
22363;SDS011;11349;53.412;-1.328;2023-01-10T07:22:14;16.20;;;3.47;;
22363;SDS011;11349;53.412;-1.328;2023-01-10T07:24:40;14.95;;;3.30;;
22363;SDS011;11349;53.412;-1.328;2023-01-10T07:27:06;15.10;;;3.10;;
22363;SDS011;11349;53.412;-1.328;2023-01-10T07:29:32;18.10;;;3.67;;
22363;SDS011;11349;53.412;-1.328;2023-01-10T07:31:58;12.25;;;3.25;;
22363;SDS011;11349;53.412;-1.328;2023-01-10T07:34:24;13.88;;;4.10;;
22363;SDS011;11349;53.412;-1.328;2023-01-10T07:36:49;18.45;;;3.30;;
22363;SDS011;11349;53.412;-1.328;2023-01-10T07:39:15;14.75;;;3.20;;
22363;SDS011;11349;53.412;-1.328;2023-01-10T07:41:40;12.00;;;2.60;;
22363;SDS011;11349;53.412;-1.328;2023-01-10T07:44:06;19.90;;;3.30;;
22363;SDS011;11349;53.412;-1.328;2023-01-10T07:46:32;11.20;;;2.47;;
22363;SDS011;11349;53.412;-1.328;2023-01-10T07:48:58;17.02;;;3.35;;
22363;SDS011;11349;53.412;-1.328;2023-01-10T07:51:23;14.13;;;3.05;;
22363;SDS011;11349;53.412;-1.328;2023-01-10T07:53:49;13.00;;;2.65;;
22363;SDS011;11349;53.412;-1.328;2023-01-10T07:56:15;13.02;;;2.70;;
22363;SDS011;11349;53.412;-1.328;2023-01-10T07:58:40;16.45;;;3.95;;
22363;SDS011;11349;53.412;-1.328;2023-01-10T08:01:06;13.70;;;2.75;;
22363;SDS011;11349;53.412;-1.328;2023-01-10T08:03:32;9.82;;;2.67;;
22363;SDS011;11349;53.412;-1.328;2023-01-10T08:06:05;15.27;;;3.55;;
22363;SDS011;11349;53.412;-1.328;2023-01-10T08:08:32;11.65;;;3.38;;
22363;SDS011;11349;53.412;-1.328;2023-01-10T08:10:58;9.77;;;3.08;;
22363;SDS011;11349;53.412;-1.328;2023-01-10T08:13:26;12.35;;;3.22;;
22363;SDS011;11349;53.412;-1.328;2023-01-10T08:15:53;19.83;;;3.85;;
22363;SDS011;11349;53.412;-1.328;2023-01-10T08:18:19;14.68;;;2.90;;
22363;SDS011;11349;53.412;-1.328;2023-01-10T08:20:49;13.45;;;2.63;;
22363;SDS011;11349;53.412;-1.328;2023-01-10T08:23:16;11.10;;;3.50;;
22363;SDS011;11349;53.412;-1.328;2023-01-10T08:25:42;12.60;;;2.58;;
22363;SDS011;11349;53.412;-1.328;2023-01-10T08:28:08;12.75;;;3.90;;
22363;SDS011;11349;53.412;-1.328;2023-01-10T08:30:35;12.43;;;2.65;;
22363;SDS011;11349;53.412;-1.328;2023-01-10T08:33:01;14.63;;;4.40;;
22363;SDS011;11349;53.412;-1.328;2023-01-10T08:35:28;9.07;;;2.42;;
22363;SDS011;11349;53.412;-1.328;2023-01-10T08:37:58;10.75;;;2.60;;
22363;SDS011;11349;53.412;-1.328;2023-01-10T08:40:24;9.40;;;2.10;;
22363;SDS011;11349;53.412;-1.328;2023-01-10T08:42:56;8.32;;;2.10;;
22363;SDS011;11349;53.412;-1.328;2023-01-10T08:45:30;10.50;;;2.42;;
22363;SDS011;11349;53.412;-1.328;2023-01-10T08:47:56;9.70;;;2.30;;
22363;SDS011;11349;53.412;-1.328;2023-01-10T08:50:22;10.80;;;2.63;;
22363;SDS011;11349;53.412;-1.328;2023-01-10T08:52:48;11.05;;;2.78;;
22363;SDS011;11349;53.412;-1.328;2023-01-10T08:55:15;13.18;;;2.80;;
22363;SDS011;11349;53.412;-1.328;2023-01-10T08:57:41;12.52;;;2.50;;
22363;SDS011;11349;53.412;-1.328;2023-01-10T09:00:07;10.07;;;2.03;;
22363;SDS011;11349;53.412;-1.328;2023-01-10T09:02:34;9.35;;;2.47;;
22363;SDS011;11349;53.412;-1.328;2023-01-10T09:04:59;10.50;;;2.30;;
22363;SDS011;11349;53.412;-1.328;2023-01-10T09:07:25;10.73;;;2.35;;
22363;SDS011;11349;53.412;-1.328;2023-01-10T09:09:51;8.63;;;2.70;;
22363;SDS011;11349;53.412;-1.328;2023-01-10T09:12:16;11.20;;;2.42;;
22363;SDS011;11349;53.412;-1.328;2023-01-10T09:15:01;7.30;;;1.95;;
22363;SDS011;11349;53.412;-1.328;2023-01-10T09:17:26;9.52;;;2.28;;
22363;SDS011;11349;53.412;-1.328;2023-01-10T09:19:52;9.20;;;2.30;;
22363;SDS011;11349;53.412;-1.328;2023-01-10T09:22:20;10.35;;;2.33;;
22363;SDS011;11349;53.412;-1.328;2023-01-10T09:24:45;7.45;;;1.75;;
22363;SDS011;11349;53.412;-1.328;2023-01-10T09:27:11;7.75;;;1.90;;
22363;SDS011;11349;53.412;-1.328;2023-01-10T09:29:37;8.48;;;2.42;;
22363;SDS011;11349;53.412;-1.328;2023-01-10T09:32:02;6.53;;;2.28;;
22363;SDS011;11349;53.412;-1.328;2023-01-10T09:34:29;7.25;;;2.28;;
22363;SDS011;11349;53.412;-1.328;2023-01-10T09:36:54;6.53;;;1.95;;
22363;SDS011;11349;53.412;-1.328;2023-01-10T09:39:20;7.28;;;1.70;;
22363;SDS011;11349;53.412;-1.328;2023-01-10T09:42:08;6.95;;;1.65;;
22363;SDS011;11349;53.412;-1.328;2023-01-10T09:47:24;5.35;;;1.73;;
22363;SDS011;11349;53.412;-1.328;2023-01-10T09:50:43;5.70;;;1.92;;
22363;SDS011;11349;53.412;-1.328;2023-01-10T09:53:11;5.00;;;1.20;;
22363;SDS011;11349;53.412;-1.328;2023-01-10T09:55:40;4.30;;;1.50;;
22363;SDS011;11349;53.412;-1.328;2023-01-10T09:58:13;4.22;;;1.27;;
22363;SDS011;11349;53.412;-1.328;2023-01-10T10:00:48;5.00;;;1.38;;
22363;SDS011;11349;53.412;-1.328;2023-01-10T10:03:45;5.80;;;2.17;;
22363;SDS011;11349;53.412;-1.328;2023-01-10T10:06:17;4.43;;;1.38;;
22363;SDS011;11349;53.412;-1.328;2023-01-10T10:08:46;6.18;;;1.30;;
22363;SDS011;11349;53.412;-1.328;2023-01-10T10:16:28;3.50;;;1.20;;
22363;SDS011;11349;53.412;-1.328;2023-01-10T10:24:37;2.47;;;0.88;;
22363;SDS011;11349;53.412;-1.328;2023-01-10T10:35:36;3.58;;;1.30;;
22363;SDS011;11349;53.412;-1.328;2023-01-10T10:38:09;5.60;;;1.30;;
22363;SDS011;11349;53.412;-1.328;2023-01-10T10:40:48;3.15;;;1.10;;
22363;SDS011;11349;53.412;-1.328;2023-01-10T10:43:17;3.15;;;1.10;;
22363;SDS011;11349;53.412;-1.328;2023-01-10T10:46:02;3.83;;;1.20;;
22363;SDS011;11349;53.412;-1.328;2023-01-10T10:52:08;2.97;;;1.00;;
22363;SDS011;11349;53.412;-1.328;2023-01-10T10:54:12;3.55;;;0.80;;
22363;SDS011;11349;53.412;-1.328;2023-01-10T10:56:39;4.28;;;1.00;;
22363;SDS011;11349;53.412;-1.328;2023-01-10T10:59:05;5.55;;;1.85;;
22363;SDS011;11349;53.412;-1.328;2023-01-10T11:01:31;4.18;;;0.80;;
22363;SDS011;11349;53.412;-1.328;2023-01-10T11:03:58;3.67;;;1.00;;
22363;SDS011;11349;53.412;-1.328;2023-01-10T11:06:27;1.77;;;0.68;;
22363;SDS011;11349;53.412;-1.328;2023-01-10T11:08:56;1.60;;;0.70;;
22363;SDS011;11349;53.412;-1.328;2023-01-10T11:11:29;2.15;;;0.70;;
22363;SDS011;11349;53.412;-1.328;2023-01-10T11:13:59;3.42;;;0.80;;
22363;SDS011;11349;53.412;-1.328;2023-01-10T11:16:30;1.25;;;0.57;;
22363;SDS011;11349;53.412;-1.328;2023-01-10T11:21:48;1.50;;;0.63;;
22363;SDS011;11349;53.412;-1.328;2023-01-10T11:26:58;2.35;;;0.70;;
22363;SDS011;11349;53.412;-1.328;2023-01-10T11:29:38;3.50;;;0.50;;
22363;SDS011;11349;53.412;-1.328;2023-01-10T11:32:12;0.88;;;0.40;;
22363;SDS011;11349;53.412;-1.328;2023-01-10T11:34:50;3.25;;;0.60;;
22363;SDS011;11349;53.412;-1.328;2023-01-10T11:37:25;1.30;;;0.60;;
22363;SDS011;11349;53.412;-1.328;2023-01-10T11:42:40;2.38;;;0.55;;
22363;SDS011;11349;53.412;-1.328;2023-01-10T11:45:52;2.00;;;0.50;;
22363;SDS011;11349;53.412;-1.328;2023-01-10T11:50:32;2.35;;;0.77;;
22363;SDS011;11349;53.412;-1.328;2023-01-10T11:53:00;2.30;;;0.55;;
22363;SDS011;11349;53.412;-1.328;2023-01-10T11:55:29;1.63;;;0.40;;
22363;SDS011;11349;53.412;-1.328;2023-01-10T11:58:05;1.05;;;0.52;;
22363;SDS011;11349;53.412;-1.328;2023-01-10T12:00:36;0.65;;;0.32;;
22363;SDS011;11349;53.412;-1.328;2023-01-10T12:03:03;1.13;;;0.50;;
22363;SDS011;11349;53.412;-1.328;2023-01-10T12:05:40;1.35;;;0.38;;
22363;SDS011;11349;53.412;-1.328;2023-01-10T12:08:34;1.13;;;0.43;;
22363;SDS011;11349;53.412;-1.328;2023-01-10T12:11:06;0.68;;;0.40;;
22363;SDS011;11349;53.412;-1.328;2023-01-10T12:13:42;0.93;;;0.32;;
22363;SDS011;11349;53.412;-1.328;2023-01-10T12:16:14;0.80;;;0.40;;
22363;SDS011;11349;53.412;-1.328;2023-01-10T12:18:51;1.20;;;0.40;;
22363;SDS011;11349;53.412;-1.328;2023-01-10T12:27:02;1.85;;;0.50;;
22363;SDS011;11349;53.412;-1.328;2023-01-10T12:29:33;1.05;;;0.43;;
22363;SDS011;11349;53.412;-1.328;2023-01-10T12:32:05;1.55;;;0.57;;
22363;SDS011;11349;53.412;-1.328;2023-01-10T12:34:43;2.53;;;0.55;;
22363;SDS011;11349;53.412;-1.328;2023-01-10T12:37:21;1.38;;;0.40;;
22363;SDS011;11349;53.412;-1.328;2023-01-10T12:39:54;0.98;;;0.47;;
22363;SDS011;11349;53.412;-1.328;2023-01-10T12:42:28;1.15;;;0.38;;
22363;SDS011;11349;53.412;-1.328;2023-01-10T12:45:27;1.13;;;0.40;;
22363;SDS011;11349;53.412;-1.328;2023-01-10T12:50:28;1.25;;;0.40;;
22363;SDS011;11349;53.412;-1.328;2023-01-10T12:55:38;1.38;;;0.43;;
22363;SDS011;11349;53.412;-1.328;2023-01-10T12:58:10;0.75;;;0.32;;
22363;SDS011;11349;53.412;-1.328;2023-01-10T13:00:51;1.38;;;0.60;;
22363;SDS011;11349;53.412;-1.328;2023-01-10T13:03:19;1.27;;;0.30;;
22363;SDS011;11349;53.412;-1.328;2023-01-10T13:05:47;0.90;;;0.60;;
22363;SDS011;11349;53.412;-1.328;2023-01-10T13:08:14;0.70;;;0.38;;
22363;SDS011;11349;53.412;-1.328;2023-01-10T13:10:44;0.90;;;0.30;;
22363;SDS011;11349;53.412;-1.328;2023-01-10T13:13:15;0.82;;;0.50;;
22363;SDS011;11349;53.412;-1.328;2023-01-10T13:18:46;1.73;;;0.50;;
22363;SDS011;11349;53.412;-1.328;2023-01-10T13:21:33;2.05;;;0.60;;
22363;SDS011;11349;53.412;-1.328;2023-01-10T13:24:03;1.13;;;0.80;;
22363;SDS011;11349;53.412;-1.328;2023-01-10T13:29:45;1.40;;;0.70;;
22363;SDS011;11349;53.412;-1.328;2023-01-10T13:32:17;1.58;;;0.60;;
22363;SDS011;11349;53.412;-1.328;2023-01-10T13:34:46;0.52;;;0.30;;
22363;SDS011;11349;53.412;-1.328;2023-01-10T13:37:23;1.15;;;0.50;;
22363;SDS011;11349;53.412;-1.328;2023-01-10T13:39:59;0.82;;;0.32;;
22363;SDS011;11349;53.412;-1.328;2023-01-10T13:42:32;1.08;;;0.30;;
22363;SDS011;11349;53.412;-1.328;2023-01-10T13:45:21;1.77;;;0.50;;
22363;SDS011;11349;53.412;-1.328;2023-01-10T13:52:46;2.08;;;0.75;;
22363;SDS011;11349;53.412;-1.328;2023-01-10T14:08:57;1.58;;;0.50;;
22363;SDS011;11349;53.412;-1.328;2023-01-10T14:11:59;2.25;;;0.70;;
22363;SDS011;11349;53.412;-1.328;2023-01-10T14:16:48;1.77;;;0.70;;
22363;SDS011;11349;53.412;-1.328;2023-01-10T14:19:39;2.22;;;0.60;;
22363;SDS011;11349;53.412;-1.328;2023-01-10T14:22:17;1.23;;;0.50;;
22363;SDS011;11349;53.412;-1.328;2023-01-10T14:24:55;2.28;;;0.55;;
22363;SDS011;11349;53.412;-1.328;2023-01-10T14:27:23;2.20;;;0.50;;
22363;SDS011;11349;53.412;-1.328;2023-01-10T14:29:53;3.30;;;0.43;;
22363;SDS011;11349;53.412;-1.328;2023-01-10T14:32:44;3.25;;;0.60;;
22363;SDS011;11349;53.412;-1.328;2023-01-10T14:35:08;0.90;;;0.35;;
22363;SDS011;11349;53.412;-1.328;2023-01-10T14:37:44;1.42;;;0.30;;
22363;SDS011;11349;53.412;-1.328;2023-01-10T14:42:49;1.08;;;0.40;;
22363;SDS011;11349;53.412;-1.328;2023-01-10T14:45:37;1.80;;;0.50;;
22363;SDS011;11349;53.412;-1.328;2023-01-10T14:53:46;2.05;;;0.40;;
22363;SDS011;11349;53.412;-1.328;2023-01-10T14:56:21;3.10;;;0.40;;
22363;SDS011;11349;53.412;-1.328;2023-01-10T14:58:52;1.65;;;0.28;;
22363;SDS011;11349;53.412;-1.328;2023-01-10T15:01:25;2.25;;;0.50;;
22363;SDS011;11349;53.412;-1.328;2023-01-10T15:03:52;3.75;;;0.70;;
22363;SDS011;11349;53.412;-1.328;2023-01-10T15:06:19;4.90;;;0.60;;
22363;SDS011;11349;53.412;-1.328;2023-01-10T15:08:45;1.30;;;0.60;;
22363;SDS011;11349;53.412;-1.328;2023-01-10T15:11:18;1.17;;;0.30;;
22363;SDS011;11349;53.412;-1.328;2023-01-10T15:13:47;2.35;;;0.40;;
22363;SDS011;11349;53.412;-1.328;2023-01-10T15:16:20;2.20;;;0.65;;
22363;SDS011;11349;53.412;-1.328;2023-01-10T15:18:48;3.00;;;0.47;;
22363;SDS011;11349;53.412;-1.328;2023-01-10T15:21:15;1.45;;;0.52;;
22363;SDS011;11349;53.412;-1.328;2023-01-10T15:23:44;2.33;;;0.63;;
22363;SDS011;11349;53.412;-1.328;2023-01-10T15:28:40;2.80;;;0.60;;
22363;SDS011;11349;53.412;-1.328;2023-01-10T15:31:13;4.20;;;0.80;;
22363;SDS011;11349;53.412;-1.328;2023-01-10T15:33:45;2.55;;;0.93;;
22363;SDS011;11349;53.412;-1.328;2023-01-10T15:36:20;3.42;;;0.75;;
22363;SDS011;11349;53.412;-1.328;2023-01-10T15:38:50;1.30;;;0.38;;
22363;SDS011;11349;53.412;-1.328;2023-01-10T15:41:17;2.50;;;0.57;;
22363;SDS011;11349;53.412;-1.328;2023-01-10T15:43:45;2.13;;;0.50;;
22363;SDS011;11349;53.412;-1.328;2023-01-10T15:46:18;3.75;;;0.60;;
22363;SDS011;11349;53.412;-1.328;2023-01-10T15:48:58;1.88;;;0.70;;
22363;SDS011;11349;53.412;-1.328;2023-01-10T15:51:34;3.40;;;0.63;;
22363;SDS011;11349;53.412;-1.328;2023-01-10T15:54:47;3.35;;;0.70;;
22363;SDS011;11349;53.412;-1.328;2023-01-10T15:56:49;1.77;;;0.47;;
22363;SDS011;11349;53.412;-1.328;2023-01-10T15:59:30;1.25;;;0.50;;
22363;SDS011;11349;53.412;-1.328;2023-01-10T16:04:35;5.18;;;0.93;;
22363;SDS011;11349;53.412;-1.328;2023-01-10T16:07:06;2.38;;;0.80;;
22363;SDS011;11349;53.412;-1.328;2023-01-10T16:09:37;1.45;;;0.52;;
22363;SDS011;11349;53.412;-1.328;2023-01-10T16:12:04;4.57;;;1.13;;
22363;SDS011;11349;53.412;-1.328;2023-01-10T16:14:48;4.60;;;1.40;;
22363;SDS011;11349;53.412;-1.328;2023-01-10T16:17:14;1.85;;;1.05;;
22363;SDS011;11349;53.412;-1.328;2023-01-10T16:19:40;1.38;;;0.55;;
22363;SDS011;11349;53.412;-1.328;2023-01-10T16:22:05;1.67;;;0.50;;
22363;SDS011;11349;53.412;-1.328;2023-01-10T16:24:32;3.20;;;0.90;;
22363;SDS011;11349;53.412;-1.328;2023-01-10T16:27:04;3.85;;;0.98;;
22363;SDS011;11349;53.412;-1.328;2023-01-10T16:29:30;6.78;;;1.15;;
22363;SDS011;11349;53.412;-1.328;2023-01-10T16:31:56;5.53;;;1.48;;
22363;SDS011;11349;53.412;-1.328;2023-01-10T16:34:22;5.55;;;2.20;;
22363;SDS011;11349;53.412;-1.328;2023-01-10T16:36:49;4.50;;;1.55;;
22363;SDS011;11349;53.412;-1.328;2023-01-10T16:39:20;3.70;;;1.17;;
22363;SDS011;11349;53.412;-1.328;2023-01-10T16:41:47;3.70;;;1.17;;
22363;SDS011;11349;53.412;-1.328;2023-01-10T16:44:32;2.72;;;0.80;;
22363;SDS011;11349;53.412;-1.328;2023-01-10T16:46:58;8.70;;;1.42;;